sensor_id;sensor_type;location;lat;lon;timestamp;temperature;humidity
41256;DHT22;26989;45.524;10.938;2023-06-10T00:02:15;19.90;99.90
41256;DHT22;26989;45.524;10.938;2023-06-10T00:04:43;20.00;99.90
41256;DHT22;26989;45.524;10.938;2023-06-10T00:07:10;20.00;99.90
41256;DHT22;26989;45.524;10.938;2023-06-10T00:09:38;19.90;99.90
41256;DHT22;26989;45.524;10.938;2023-06-10T00:12:06;19.90;99.90
41256;DHT22;26989;45.524;10.938;2023-06-10T00:14:36;19.80;99.90
41256;DHT22;26989;45.524;10.938;2023-06-10T00:17:03;19.80;99.90
41256;DHT22;26989;45.524;10.938;2023-06-10T00:19:31;19.70;99.90
41256;DHT22;26989;45.524;10.938;2023-06-10T00:21:58;19.50;99.90
41256;DHT22;26989;45.524;10.938;2023-06-10T00:24:25;19.50;99.90
41256;DHT22;26989;45.524;10.938;2023-06-10T00:26:52;19.60;99.90
41256;DHT22;26989;45.524;10.938;2023-06-10T00:29:19;19.70;99.90
41256;DHT22;26989;45.524;10.938;2023-06-10T00:31:46;19.70;99.90
41256;DHT22;26989;45.524;10.938;2023-06-10T00:34:13;19.70;99.90
41256;DHT22;26989;45.524;10.938;2023-06-10T00:36:40;19.70;99.90
41256;DHT22;26989;45.524;10.938;2023-06-10T00:39:07;19.80;99.90
41256;DHT22;26989;45.524;10.938;2023-06-10T00:41:34;19.70;99.90
41256;DHT22;26989;45.524;10.938;2023-06-10T00:44:01;19.60;99.90
41256;DHT22;26989;45.524;10.938;2023-06-10T00:46:28;19.50;99.90
41256;DHT22;26989;45.524;10.938;2023-06-10T00:48:55;19.50;99.90
41256;DHT22;26989;45.524;10.938;2023-06-10T00:51:22;19.50;99.90
41256;DHT22;26989;45.524;10.938;2023-06-10T00:53:50;19.60;99.90
41256;DHT22;26989;45.524;10.938;2023-06-10T00:56:17;19.70;99.90
41256;DHT22;26989;45.524;10.938;2023-06-10T00:58:44;19.70;99.90
41256;DHT22;26989;45.524;10.938;2023-06-10T01:01:11;19.80;99.90
41256;DHT22;26989;45.524;10.938;2023-06-10T01:03:39;19.70;99.90
41256;DHT22;26989;45.524;10.938;2023-06-10T01:08:51;19.70;99.90
41256;DHT22;26989;45.524;10.938;2023-06-10T01:11:23;19.40;99.90
41256;DHT22;26989;45.524;10.938;2023-06-10T01:13:52;19.30;99.90
41256;DHT22;26989;45.524;10.938;2023-06-10T01:16:21;19.20;99.90
41256;DHT22;26989;45.524;10.938;2023-06-10T01:18:48;19.30;99.90
41256;DHT22;26989;45.524;10.938;2023-06-10T01:21:24;19.40;99.90
41256;DHT22;26989;45.524;10.938;2023-06-10T01:23:54;19.40;99.90
41256;DHT22;26989;45.524;10.938;2023-06-10T01:26:28;19.50;99.90
41256;DHT22;26989;45.524;10.938;2023-06-10T01:29:06;19.50;99.90
41256;DHT22;26989;45.524;10.938;2023-06-10T01:31:41;19.40;99.90
41256;DHT22;26989;45.524;10.938;2023-06-10T01:34:12;19.40;99.90
41256;DHT22;26989;45.524;10.938;2023-06-10T01:36:41;19.40;99.90
41256;DHT22;26989;45.524;10.938;2023-06-10T01:39:11;19.40;99.90
41256;DHT22;26989;45.524;10.938;2023-06-10T01:41:39;19.40;99.90
41256;DHT22;26989;45.524;10.938;2023-06-10T01:44:06;19.20;99.90
41256;DHT22;26989;45.524;10.938;2023-06-10T01:46:33;19.30;99.90
41256;DHT22;26989;45.524;10.938;2023-06-10T01:49:00;19.40;99.90
41256;DHT22;26989;45.524;10.938;2023-06-10T01:51:27;19.30;99.90
41256;DHT22;26989;45.524;10.938;2023-06-10T01:53:54;19.30;99.90
41256;DHT22;26989;45.524;10.938;2023-06-10T01:56:21;19.30;99.90
41256;DHT22;26989;45.524;10.938;2023-06-10T01:58:48;19.20;99.90
41256;DHT22;26989;45.524;10.938;2023-06-10T02:01:15;19.20;99.90
41256;DHT22;26989;45.524;10.938;2023-06-10T02:03:42;19.30;99.90
41256;DHT22;26989;45.524;10.938;2023-06-10T02:06:09;19.20;99.90
41256;DHT22;26989;45.524;10.938;2023-06-10T02:08:36;19.20;99.90
41256;DHT22;26989;45.524;10.938;2023-06-10T02:11:03;19.20;99.90
41256;DHT22;26989;45.524;10.938;2023-06-10T02:13:30;19.20;99.90
41256;DHT22;26989;45.524;10.938;2023-06-10T02:15:57;19.20;99.90
41256;DHT22;26989;45.524;10.938;2023-06-10T02:18:24;19.20;99.90
41256;DHT22;26989;45.524;10.938;2023-06-10T02:20:51;19.20;99.90
41256;DHT22;26989;45.524;10.938;2023-06-10T02:23:18;19.20;99.90
41256;DHT22;26989;45.524;10.938;2023-06-10T02:25:45;19.10;99.90
41256;DHT22;26989;45.524;10.938;2023-06-10T02:28:11;19.10;99.90
41256;DHT22;26989;45.524;10.938;2023-06-10T02:30:40;18.90;99.90
41256;DHT22;26989;45.524;10.938;2023-06-10T02:33:07;19.00;99.90
41256;DHT22;26989;45.524;10.938;2023-06-10T02:35:40;19.00;99.90
41256;DHT22;26989;45.524;10.938;2023-06-10T02:38:07;19.00;99.90
41256;DHT22;26989;45.524;10.938;2023-06-10T02:40:34;18.90;99.90
41256;DHT22;26989;45.524;10.938;2023-06-10T02:43:01;18.90;99.90
41256;DHT22;26989;45.524;10.938;2023-06-10T02:45:28;18.90;99.90
41256;DHT22;26989;45.524;10.938;2023-06-10T02:47:55;19.00;99.90
41256;DHT22;26989;45.524;10.938;2023-06-10T02:50:22;18.90;99.90
41256;DHT22;26989;45.524;10.938;2023-06-10T02:52:49;18.90;99.90
41256;DHT22;26989;45.524;10.938;2023-06-10T02:55:16;18.90;99.90
41256;DHT22;26989;45.524;10.938;2023-06-10T02:57:43;18.90;99.90
41256;DHT22;26989;45.524;10.938;2023-06-10T03:00:10;18.90;99.90
41256;DHT22;26989;45.524;10.938;2023-06-10T03:02:38;18.80;99.90
41256;DHT22;26989;45.524;10.938;2023-06-10T03:05:06;18.80;99.90
41256;DHT22;26989;45.524;10.938;2023-06-10T03:07:37;18.70;99.90
41256;DHT22;26989;45.524;10.938;2023-06-10T03:10:05;18.60;99.90
41256;DHT22;26989;45.524;10.938;2023-06-10T03:12:32;18.60;99.90
41256;DHT22;26989;45.524;10.938;2023-06-10T03:14:59;18.60;99.90
41256;DHT22;26989;45.524;10.938;2023-06-10T03:17:26;18.60;99.90
41256;DHT22;26989;45.524;10.938;2023-06-10T03:19:53;18.50;99.90
41256;DHT22;26989;45.524;10.938;2023-06-10T03:22:20;18.50;99.90
41256;DHT22;26989;45.524;10.938;2023-06-10T03:24:47;18.60;99.90
41256;DHT22;26989;45.524;10.938;2023-06-10T03:27:17;18.60;99.90
41256;DHT22;26989;45.524;10.938;2023-06-10T03:29:44;18.70;99.90
41256;DHT22;26989;45.524;10.938;2023-06-10T03:32:11;18.70;99.90
41256;DHT22;26989;45.524;10.938;2023-06-10T03:34:38;18.70;99.90
41256;DHT22;26989;45.524;10.938;2023-06-10T03:37:05;18.80;99.90
41256;DHT22;26989;45.524;10.938;2023-06-10T03:39:32;18.90;99.90
41256;DHT22;26989;45.524;10.938;2023-06-10T03:41:59;18.80;99.90
41256;DHT22;26989;45.524;10.938;2023-06-10T03:44:26;18.80;99.90
41256;DHT22;26989;45.524;10.938;2023-06-10T03:46:54;18.70;99.90
41256;DHT22;26989;45.524;10.938;2023-06-10T03:49:22;18.70;99.90
41256;DHT22;26989;45.524;10.938;2023-06-10T03:51:53;18.60;99.90
41256;DHT22;26989;45.524;10.938;2023-06-10T03:54:21;18.80;99.90
41256;DHT22;26989;45.524;10.938;2023-06-10T03:56:48;18.90;99.90
41256;DHT22;26989;45.524;10.938;2023-06-10T03:59:15;19.00;99.90
41256;DHT22;26989;45.524;10.938;2023-06-10T04:01:42;19.00;99.90
41256;DHT22;26989;45.524;10.938;2023-06-10T04:04:15;19.10;99.90
41256;DHT22;26989;45.524;10.938;2023-06-10T04:06:44;19.00;99.90
41256;DHT22;26989;45.524;10.938;2023-06-10T04:09:11;19.10;99.90
41256;DHT22;26989;45.524;10.938;2023-06-10T04:11:39;19.10;99.90
41256;DHT22;26989;45.524;10.938;2023-06-10T04:14:06;19.10;99.90
41256;DHT22;26989;45.524;10.938;2023-06-10T04:16:33;19.00;99.90
41256;DHT22;26989;45.524;10.938;2023-06-10T04:19:00;19.10;99.90
41256;DHT22;26989;45.524;10.938;2023-06-10T04:21:27;19.00;99.90
41256;DHT22;26989;45.524;10.938;2023-06-10T04:23:54;19.10;99.90
41256;DHT22;26989;45.524;10.938;2023-06-10T04:26:21;19.00;99.90
41256;DHT22;26989;45.524;10.938;2023-06-10T04:28:48;19.10;99.90
41256;DHT22;26989;45.524;10.938;2023-06-10T04:31:15;19.20;99.90
41256;DHT22;26989;45.524;10.938;2023-06-10T04:33:42;19.30;99.90
41256;DHT22;26989;45.524;10.938;2023-06-10T04:36:09;19.40;99.90
41256;DHT22;26989;45.524;10.938;2023-06-10T04:38:36;19.50;99.90
41256;DHT22;26989;45.524;10.938;2023-06-10T04:41:03;19.50;99.90
41256;DHT22;26989;45.524;10.938;2023-06-10T04:43:30;19.40;99.90
41256;DHT22;26989;45.524;10.938;2023-06-10T04:45:57;19.20;99.90
41256;DHT22;26989;45.524;10.938;2023-06-10T04:48:24;19.20;99.90
41256;DHT22;26989;45.524;10.938;2023-06-10T04:50:51;19.10;99.90
41256;DHT22;26989;45.524;10.938;2023-06-10T04:53:18;19.10;99.90
41256;DHT22;26989;45.524;10.938;2023-06-10T04:55:45;19.20;99.90
41256;DHT22;26989;45.524;10.938;2023-06-10T04:58:12;19.10;99.90
41256;DHT22;26989;45.524;10.938;2023-06-10T05:00:39;19.00;99.90
41256;DHT22;26989;45.524;10.938;2023-06-10T05:03:06;19.00;99.90
41256;DHT22;26989;45.524;10.938;2023-06-10T05:05:33;19.00;99.90
41256;DHT22;26989;45.524;10.938;2023-06-10T05:08:00;19.10;99.90
41256;DHT22;26989;45.524;10.938;2023-06-10T05:10:27;19.00;99.90
41256;DHT22;26989;45.524;10.938;2023-06-10T05:12:54;19.10;99.90
41256;DHT22;26989;45.524;10.938;2023-06-10T05:15:21;19.20;99.90
41256;DHT22;26989;45.524;10.938;2023-06-10T05:17:47;19.20;99.90
41256;DHT22;26989;45.524;10.938;2023-06-10T05:20:14;19.40;99.90
41256;DHT22;26989;45.524;10.938;2023-06-10T05:22:42;19.40;99.90
41256;DHT22;26989;45.524;10.938;2023-06-10T05:25:09;19.50;99.90
41256;DHT22;26989;45.524;10.938;2023-06-10T05:27:36;19.50;99.90
41256;DHT22;26989;45.524;10.938;2023-06-10T05:30:03;19.70;99.90
41256;DHT22;26989;45.524;10.938;2023-06-10T05:32:31;19.70;99.90
41256;DHT22;26989;45.524;10.938;2023-06-10T05:34:58;19.50;99.90
41256;DHT22;26989;45.524;10.938;2023-06-10T05:37:26;19.70;99.90
41256;DHT22;26989;45.524;10.938;2023-06-10T05:39:53;20.00;99.90
41256;DHT22;26989;45.524;10.938;2023-06-10T05:42:21;20.10;99.90
41256;DHT22;26989;45.524;10.938;2023-06-10T05:44:47;20.10;99.90
41256;DHT22;26989;45.524;10.938;2023-06-10T05:47:14;20.10;99.90
41256;DHT22;26989;45.524;10.938;2023-06-10T05:49:41;20.40;99.90
41256;DHT22;26989;45.524;10.938;2023-06-10T05:52:08;20.50;99.90
41256;DHT22;26989;45.524;10.938;2023-06-10T05:54:35;20.90;99.90
41256;DHT22;26989;45.524;10.938;2023-06-10T05:57:02;21.00;99.90
41256;DHT22;26989;45.524;10.938;2023-06-10T05:59:30;21.50;99.90
41256;DHT22;26989;45.524;10.938;2023-06-10T06:01:57;21.90;99.90
41256;DHT22;26989;45.524;10.938;2023-06-10T06:04:25;22.00;99.90
41256;DHT22;26989;45.524;10.938;2023-06-10T06:06:52;22.10;99.90
41256;DHT22;26989;45.524;10.938;2023-06-10T06:09:18;22.40;99.90
41256;DHT22;26989;45.524;10.938;2023-06-10T06:11:45;22.60;99.90
41256;DHT22;26989;45.524;10.938;2023-06-10T06:14:12;22.80;99.90
41256;DHT22;26989;45.524;10.938;2023-06-10T06:16:39;23.00;99.90
41256;DHT22;26989;45.524;10.938;2023-06-10T06:19:06;23.00;99.90
41256;DHT22;26989;45.524;10.938;2023-06-10T06:21:33;22.90;99.90
41256;DHT22;26989;45.524;10.938;2023-06-10T06:24:00;23.00;99.90
41256;DHT22;26989;45.524;10.938;2023-06-10T06:26:27;23.10;99.90
41256;DHT22;26989;45.524;10.938;2023-06-10T06:28:54;23.20;99.90
41256;DHT22;26989;45.524;10.938;2023-06-10T06:31:21;23.10;99.90
41256;DHT22;26989;45.524;10.938;2023-06-10T06:33:48;23.20;99.90
41256;DHT22;26989;45.524;10.938;2023-06-10T06:36:15;23.20;99.90
41256;DHT22;26989;45.524;10.938;2023-06-10T06:38:41;23.30;99.90
41256;DHT22;26989;45.524;10.938;2023-06-10T06:41:08;23.20;99.90
41256;DHT22;26989;45.524;10.938;2023-06-10T06:43:35;23.50;99.90
41256;DHT22;26989;45.524;10.938;2023-06-10T06:46:02;23.70;99.90
41256;DHT22;26989;45.524;10.938;2023-06-10T06:48:29;23.90;99.90
41256;DHT22;26989;45.524;10.938;2023-06-10T06:50:56;24.10;99.90
41256;DHT22;26989;45.524;10.938;2023-06-10T06:53:25;24.00;99.90
41256;DHT22;26989;45.524;10.938;2023-06-10T06:55:53;24.00;99.90
41256;DHT22;26989;45.524;10.938;2023-06-10T06:58:20;24.10;99.90
41256;DHT22;26989;45.524;10.938;2023-06-10T07:00:46;24.10;99.90
41256;DHT22;26989;45.524;10.938;2023-06-10T07:03:13;24.20;99.90
41256;DHT22;26989;45.524;10.938;2023-06-10T07:05:40;24.20;99.90
41256;DHT22;26989;45.524;10.938;2023-06-10T07:08:07;24.20;99.90
41256;DHT22;26989;45.524;10.938;2023-06-10T07:10:34;24.20;99.90
41256;DHT22;26989;45.524;10.938;2023-06-10T07:13:01;24.30;99.90
41256;DHT22;26989;45.524;10.938;2023-06-10T07:15:28;24.20;99.90
41256;DHT22;26989;45.524;10.938;2023-06-10T07:17:55;24.00;99.90
41256;DHT22;26989;45.524;10.938;2023-06-10T07:20:23;24.40;99.90
41256;DHT22;26989;45.524;10.938;2023-06-10T07:22:50;24.60;99.90
41256;DHT22;26989;45.524;10.938;2023-06-10T07:25:17;24.70;99.90
41256;DHT22;26989;45.524;10.938;2023-06-10T07:27:43;24.50;99.90
41256;DHT22;26989;45.524;10.938;2023-06-10T07:30:11;24.90;99.90
41256;DHT22;26989;45.524;10.938;2023-06-10T07:32:38;25.00;99.90
41256;DHT22;26989;45.524;10.938;2023-06-10T07:35:08;25.10;99.90
41256;DHT22;26989;45.524;10.938;2023-06-10T07:37:37;25.10;99.90
41256;DHT22;26989;45.524;10.938;2023-06-10T07:40:04;25.20;99.90
41256;DHT22;26989;45.524;10.938;2023-06-10T07:42:33;25.50;99.90
41256;DHT22;26989;45.524;10.938;2023-06-10T07:45:01;24.80;99.90
41256;DHT22;26989;45.524;10.938;2023-06-10T07:47:32;25.20;99.90
41256;DHT22;26989;45.524;10.938;2023-06-10T07:50:00;24.90;99.90
41256;DHT22;26989;45.524;10.938;2023-06-10T07:52:27;25.10;99.90
41256;DHT22;26989;45.524;10.938;2023-06-10T07:54:55;25.00;99.90
41256;DHT22;26989;45.524;10.938;2023-06-10T07:57:22;25.40;99.90
41256;DHT22;26989;45.524;10.938;2023-06-10T07:59:49;25.50;99.90
41256;DHT22;26989;45.524;10.938;2023-06-10T08:02:16;25.50;99.90
41256;DHT22;26989;45.524;10.938;2023-06-10T08:04:43;25.50;99.90
41256;DHT22;26989;45.524;10.938;2023-06-10T08:07:10;25.50;99.90
41256;DHT22;26989;45.524;10.938;2023-06-10T08:09:37;25.70;99.90
41256;DHT22;26989;45.524;10.938;2023-06-10T08:12:05;25.40;99.90
41256;DHT22;26989;45.524;10.938;2023-06-10T08:14:32;24.60;99.90
41256;DHT22;26989;45.524;10.938;2023-06-10T08:16:59;24.80;99.90
41256;DHT22;26989;45.524;10.938;2023-06-10T08:19:26;25.30;99.90
41256;DHT22;26989;45.524;10.938;2023-06-10T08:21:53;25.40;99.90
41256;DHT22;26989;45.524;10.938;2023-06-10T08:24:20;25.60;99.90
41256;DHT22;26989;45.524;10.938;2023-06-10T08:26:47;25.40;99.90
41256;DHT22;26989;45.524;10.938;2023-06-10T08:29:14;25.70;99.90
41256;DHT22;26989;45.524;10.938;2023-06-10T08:31:43;25.70;99.90
41256;DHT22;26989;45.524;10.938;2023-06-10T08:34:12;25.70;99.90
41256;DHT22;26989;45.524;10.938;2023-06-10T08:36:39;25.90;99.90
41256;DHT22;26989;45.524;10.938;2023-06-10T08:39:08;26.20;99.90
41256;DHT22;26989;45.524;10.938;2023-06-10T08:41:42;26.00;99.90
41256;DHT22;26989;45.524;10.938;2023-06-10T08:44:30;26.60;99.90
41256;DHT22;26989;45.524;10.938;2023-06-10T08:47:00;26.50;99.90
41256;DHT22;26989;45.524;10.938;2023-06-10T08:49:30;26.80;99.90
41256;DHT22;26989;45.524;10.938;2023-06-10T08:51:59;27.10;99.90
41256;DHT22;26989;45.524;10.938;2023-06-10T08:54:32;27.70;99.90
41256;DHT22;26989;45.524;10.938;2023-06-10T08:57:01;27.70;99.90
41256;DHT22;26989;45.524;10.938;2023-06-10T08:59:30;28.00;99.90
41256;DHT22;26989;45.524;10.938;2023-06-10T09:01:58;27.10;99.90
41256;DHT22;26989;45.524;10.938;2023-06-10T09:04:26;27.20;99.90
41256;DHT22;26989;45.524;10.938;2023-06-10T09:06:54;26.80;99.90
41256;DHT22;26989;45.524;10.938;2023-06-10T09:09:23;25.90;99.90
41256;DHT22;26989;45.524;10.938;2023-06-10T09:11:51;26.40;99.90
41256;DHT22;26989;45.524;10.938;2023-06-10T09:14:18;26.50;99.90
41256;DHT22;26989;45.524;10.938;2023-06-10T09:16:46;26.60;99.90
41256;DHT22;26989;45.524;10.938;2023-06-10T09:19:16;26.60;98.30
41256;DHT22;26989;45.524;10.938;2023-06-10T09:21:43;26.30;98.60
41256;DHT22;26989;45.524;10.938;2023-06-10T09:24:11;26.30;98.20
41256;DHT22;26989;45.524;10.938;2023-06-10T09:26:38;26.40;98.50
41256;DHT22;26989;45.524;10.938;2023-06-10T09:29:06;26.40;98.50
41256;DHT22;26989;45.524;10.938;2023-06-10T09:31:35;26.40;98.10
41256;DHT22;26989;45.524;10.938;2023-06-10T09:34:14;26.60;97.40
41256;DHT22;26989;45.524;10.938;2023-06-10T09:36:42;26.60;98.40
41256;DHT22;26989;45.524;10.938;2023-06-10T09:39:16;26.60;97.30
41256;DHT22;26989;45.524;10.938;2023-06-10T09:41:44;26.60;96.90
41256;DHT22;26989;45.524;10.938;2023-06-10T09:44:13;26.30;97.00
41256;DHT22;26989;45.524;10.938;2023-06-10T09:46:46;26.90;98.00
41256;DHT22;26989;45.524;10.938;2023-06-10T09:49:14;27.40;96.80
41256;DHT22;26989;45.524;10.938;2023-06-10T09:51:54;27.60;96.70
41256;DHT22;26989;45.524;10.938;2023-06-10T09:54:21;27.30;96.00
41256;DHT22;26989;45.524;10.938;2023-06-10T09:56:51;27.40;96.70
41256;DHT22;26989;45.524;10.938;2023-06-10T09:59:30;27.30;95.40
41256;DHT22;26989;45.524;10.938;2023-06-10T10:02:01;26.80;95.00
41256;DHT22;26989;45.524;10.938;2023-06-10T10:04:28;26.90;95.80
41256;DHT22;26989;45.524;10.938;2023-06-10T10:06:55;26.70;95.60
41256;DHT22;26989;45.524;10.938;2023-06-10T10:09:22;26.80;95.30
41256;DHT22;26989;45.524;10.938;2023-06-10T10:11:49;27.10;94.30
41256;DHT22;26989;45.524;10.938;2023-06-10T10:14:19;27.20;93.70
41256;DHT22;26989;45.524;10.938;2023-06-10T10:16:47;27.20;93.70
41256;DHT22;26989;45.524;10.938;2023-06-10T10:19:28;27.20;94.20
41256;DHT22;26989;45.524;10.938;2023-06-10T10:22:01;27.30;93.10
41256;DHT22;26989;45.524;10.938;2023-06-10T10:24:37;27.30;93.00
41256;DHT22;26989;45.524;10.938;2023-06-10T10:27:11;27.40;93.30
41256;DHT22;26989;45.524;10.938;2023-06-10T10:29:42;27.50;92.80
41256;DHT22;26989;45.524;10.938;2023-06-10T10:32:13;27.50;93.70
41256;DHT22;26989;45.524;10.938;2023-06-10T10:37:14;27.90;93.80
41256;DHT22;26989;45.524;10.938;2023-06-10T10:39:41;27.70;93.10
41256;DHT22;26989;45.524;10.938;2023-06-10T10:42:08;27.70;93.70
41256;DHT22;26989;45.524;10.938;2023-06-10T10:44:39;27.80;92.50
41256;DHT22;26989;45.524;10.938;2023-06-10T10:47:10;27.60;92.70
41256;DHT22;26989;45.524;10.938;2023-06-10T10:49:38;27.60;93.40
41256;DHT22;26989;45.524;10.938;2023-06-10T10:52:11;27.60;93.70
41256;DHT22;26989;45.524;10.938;2023-06-10T10:54:44;27.30;93.70
41256;DHT22;26989;45.524;10.938;2023-06-10T10:57:21;26.80;94.20
41256;DHT22;26989;45.524;10.938;2023-06-10T11:02:40;27.00;95.20
41256;DHT22;26989;45.524;10.938;2023-06-10T11:05:09;26.90;95.30
41256;DHT22;26989;45.524;10.938;2023-06-10T11:07:37;27.00;95.50
41256;DHT22;26989;45.524;10.938;2023-06-10T11:10:09;26.80;95.80
41256;DHT22;26989;45.524;10.938;2023-06-10T11:15:09;26.60;95.60
41256;DHT22;26989;45.524;10.938;2023-06-10T11:17:37;26.60;95.30
41256;DHT22;26989;45.524;10.938;2023-06-10T11:20:05;26.30;95.60
41256;DHT22;26989;45.524;10.938;2023-06-10T11:23:00;26.30;95.90
41256;DHT22;26989;45.524;10.938;2023-06-10T11:25:39;26.40;96.50
41256;DHT22;26989;45.524;10.938;2023-06-10T11:28:20;26.20;96.90
41256;DHT22;26989;45.524;10.938;2023-06-10T11:30:57;26.20;97.30
41256;DHT22;26989;45.524;10.938;2023-06-10T11:33:25;26.20;98.40
41256;DHT22;26989;45.524;10.938;2023-06-10T11:35:52;26.00;98.00
41256;DHT22;26989;45.524;10.938;2023-06-10T11:38:19;25.00;99.70
41256;DHT22;26989;45.524;10.938;2023-06-10T11:40:50;25.60;98.20
41256;DHT22;26989;45.524;10.938;2023-06-10T11:43:18;25.60;98.20
41256;DHT22;26989;45.524;10.938;2023-06-10T11:45:45;24.50;98.30
41256;DHT22;26989;45.524;10.938;2023-06-10T11:48:13;25.10;98.70
41256;DHT22;26989;45.524;10.938;2023-06-10T11:50:40;24.50;99.90
41256;DHT22;26989;45.524;10.938;2023-06-10T11:53:08;23.30;99.90
41256;DHT22;26989;45.524;10.938;2023-06-10T11:55:42;22.80;99.90
41256;DHT22;26989;45.524;10.938;2023-06-10T11:58:22;23.20;99.90
41256;DHT22;26989;45.524;10.938;2023-06-10T12:00:51;23.30;99.90
41256;DHT22;26989;45.524;10.938;2023-06-10T12:03:20;23.20;99.90
41256;DHT22;26989;45.524;10.938;2023-06-10T12:06:05;23.40;99.90
41256;DHT22;26989;45.524;10.938;2023-06-10T12:08:33;23.40;99.90
41256;DHT22;26989;45.524;10.938;2023-06-10T12:11:07;23.60;99.90
41256;DHT22;26989;45.524;10.938;2023-06-10T12:13:34;23.50;99.90
41256;DHT22;26989;45.524;10.938;2023-06-10T12:16:09;23.70;99.90
41256;DHT22;26989;45.524;10.938;2023-06-10T12:18:36;23.50;99.90
41256;DHT22;26989;45.524;10.938;2023-06-10T12:21:03;23.40;99.90
41256;DHT22;26989;45.524;10.938;2023-06-10T12:24:08;23.70;99.90
41256;DHT22;26989;45.524;10.938;2023-06-10T12:26:43;23.60;99.50
41256;DHT22;26989;45.524;10.938;2023-06-10T12:29:21;23.40;97.30
41256;DHT22;26989;45.524;10.938;2023-06-10T12:32:02;23.30;98.50
41256;DHT22;26989;45.524;10.938;2023-06-10T12:34:40;23.70;98.70
41256;DHT22;26989;45.524;10.938;2023-06-10T12:37:11;23.90;98.20
41256;DHT22;26989;45.524;10.938;2023-06-10T12:39:41;23.80;97.00
41256;DHT22;26989;45.524;10.938;2023-06-10T12:42:09;24.10;96.30
41256;DHT22;26989;45.524;10.938;2023-06-10T12:44:40;23.80;96.80
41256;DHT22;26989;45.524;10.938;2023-06-10T12:47:11;23.80;96.00
41256;DHT22;26989;45.524;10.938;2023-06-10T12:49:41;23.40;96.50
41256;DHT22;26989;45.524;10.938;2023-06-10T12:52:08;23.80;96.90
41256;DHT22;26989;45.524;10.938;2023-06-10T12:54:35;24.10;96.90
41256;DHT22;26989;45.524;10.938;2023-06-10T12:57:03;25.00;96.30
41256;DHT22;26989;45.524;10.938;2023-06-10T12:59:31;25.00;96.00
41256;DHT22;26989;45.524;10.938;2023-06-10T13:01:59;25.20;96.50
41256;DHT22;26989;45.524;10.938;2023-06-10T13:04:26;24.80;96.70
41256;DHT22;26989;45.524;10.938;2023-06-10T13:06:53;25.10;96.60
41256;DHT22;26989;45.524;10.938;2023-06-10T13:09:21;25.10;96.70
41256;DHT22;26989;45.524;10.938;2023-06-10T13:11:48;25.40;96.60
41256;DHT22;26989;45.524;10.938;2023-06-10T13:14:15;25.50;96.60
41256;DHT22;26989;45.524;10.938;2023-06-10T13:16:42;26.20;95.90
41256;DHT22;26989;45.524;10.938;2023-06-10T13:19:11;26.00;96.30
41256;DHT22;26989;45.524;10.938;2023-06-10T13:21:38;26.60;95.50
41256;DHT22;26989;45.524;10.938;2023-06-10T13:24:07;26.80;95.40
41256;DHT22;26989;45.524;10.938;2023-06-10T13:26:34;27.30;95.70
41256;DHT22;26989;45.524;10.938;2023-06-10T13:29:01;27.80;94.70
41256;DHT22;26989;45.524;10.938;2023-06-10T13:31:28;27.90;94.70
41256;DHT22;26989;45.524;10.938;2023-06-10T13:33:55;28.20;95.10
41256;DHT22;26989;45.524;10.938;2023-06-10T13:36:22;28.80;94.90
41256;DHT22;26989;45.524;10.938;2023-06-10T13:38:49;29.00;94.00
41256;DHT22;26989;45.524;10.938;2023-06-10T13:41:16;29.10;94.50
41256;DHT22;26989;45.524;10.938;2023-06-10T13:43:43;29.10;94.30
41256;DHT22;26989;45.524;10.938;2023-06-10T13:46:10;28.80;94.10
41256;DHT22;26989;45.524;10.938;2023-06-10T13:48:38;28.40;94.60
41256;DHT22;26989;45.524;10.938;2023-06-10T13:51:05;28.50;95.00
41256;DHT22;26989;45.524;10.938;2023-06-10T13:57:13;28.60;94.60
41256;DHT22;26989;45.524;10.938;2023-06-10T13:59:40;28.50;95.30
41256;DHT22;26989;45.524;10.938;2023-06-10T14:02:07;28.40;95.70
41256;DHT22;26989;45.524;10.938;2023-06-10T14:04:34;28.40;95.60
41256;DHT22;26989;45.524;10.938;2023-06-10T14:07:01;28.20;96.00
41256;DHT22;26989;45.524;10.938;2023-06-10T14:09:28;28.30;96.30
41256;DHT22;26989;45.524;10.938;2023-06-10T14:11:55;28.20;95.20
41256;DHT22;26989;45.524;10.938;2023-06-10T14:14:22;28.30;96.20
41256;DHT22;26989;45.524;10.938;2023-06-10T14:16:49;28.60;95.00
41256;DHT22;26989;45.524;10.938;2023-06-10T14:19:18;28.70;95.10
41256;DHT22;26989;45.524;10.938;2023-06-10T14:21:45;28.60;94.30
41256;DHT22;26989;45.524;10.938;2023-06-10T14:24:14;28.50;94.40
41256;DHT22;26989;45.524;10.938;2023-06-10T14:26:41;28.00;94.30
41256;DHT22;26989;45.524;10.938;2023-06-10T14:29:08;27.90;95.20
41256;DHT22;26989;45.524;10.938;2023-06-10T14:31:36;28.10;94.20
41256;DHT22;26989;45.524;10.938;2023-06-10T14:34:03;28.70;94.30
41256;DHT22;26989;45.524;10.938;2023-06-10T14:36:30;28.70;94.20
41256;DHT22;26989;45.524;10.938;2023-06-10T14:38:58;28.90;94.20
41256;DHT22;26989;45.524;10.938;2023-06-10T14:41:25;29.20;92.80
41256;DHT22;26989;45.524;10.938;2023-06-10T14:43:53;29.30;93.40
41256;DHT22;26989;45.524;10.938;2023-06-10T14:46:20;29.30;93.70
41256;DHT22;26989;45.524;10.938;2023-06-10T14:48:47;29.00;93.00
41256;DHT22;26989;45.524;10.938;2023-06-10T14:51:16;28.90;93.10
41256;DHT22;26989;45.524;10.938;2023-06-10T14:53:43;28.70;93.20
41256;DHT22;26989;45.524;10.938;2023-06-10T14:56:10;28.90;93.40
41256;DHT22;26989;45.524;10.938;2023-06-10T14:58:37;29.10;92.50
41256;DHT22;26989;45.524;10.938;2023-06-10T15:01:05;28.90;92.80
41256;DHT22;26989;45.524;10.938;2023-06-10T15:03:32;29.10;92.60
41256;DHT22;26989;45.524;10.938;2023-06-10T15:05:59;29.10;92.40
41256;DHT22;26989;45.524;10.938;2023-06-10T15:08:27;29.40;92.70
41256;DHT22;26989;45.524;10.938;2023-06-10T15:10:58;29.60;92.50
41256;DHT22;26989;45.524;10.938;2023-06-10T15:13:28;29.40;92.00
41256;DHT22;26989;45.524;10.938;2023-06-10T15:15:55;29.50;92.30
41256;DHT22;26989;45.524;10.938;2023-06-10T15:18:25;29.60;92.90
41256;DHT22;26989;45.524;10.938;2023-06-10T15:20:52;29.40;92.90
41256;DHT22;26989;45.524;10.938;2023-06-10T15:23:19;29.50;93.00
41256;DHT22;26989;45.524;10.938;2023-06-10T15:25:46;29.50;93.10
41256;DHT22;26989;45.524;10.938;2023-06-10T15:28:13;29.60;92.90
41256;DHT22;26989;45.524;10.938;2023-06-10T15:30:40;29.40;92.90
41256;DHT22;26989;45.524;10.938;2023-06-10T15:33:07;29.60;92.40
41256;DHT22;26989;45.524;10.938;2023-06-10T15:35:35;29.40;93.20
41256;DHT22;26989;45.524;10.938;2023-06-10T15:38:02;29.50;93.40